sensor_id;sensor_type;location;lat;lon;timestamp;P1;durP1;ratioP1;P2;durP2;ratioP2
19280;SDS011;9774;52.034;5.342;2022-09-20T00:01:02;3.85;;;0.95;;
19280;SDS011;9774;52.034;5.342;2022-09-20T00:03:31;5.10;;;0.80;;
19280;SDS011;9774;52.034;5.342;2022-09-20T00:06:00;1.05;;;0.70;;
19280;SDS011;9774;52.034;5.342;2022-09-20T00:08:29;1.20;;;0.55;;
19280;SDS011;9774;52.034;5.342;2022-09-20T00:10:57;1.40;;;0.50;;
19280;SDS011;9774;52.034;5.342;2022-09-20T00:13:26;1.80;;;0.60;;
19280;SDS011;9774;52.034;5.342;2022-09-20T00:15:54;2.72;;;0.52;;
19280;SDS011;9774;52.034;5.342;2022-09-20T00:18:21;4.15;;;0.68;;
19280;SDS011;9774;52.034;5.342;2022-09-20T00:20:49;1.63;;;0.60;;
19280;SDS011;9774;52.034;5.342;2022-09-20T00:23:18;3.13;;;1.00;;
19280;SDS011;9774;52.034;5.342;2022-09-20T00:25:53;1.10;;;0.52;;
19280;SDS011;9774;52.034;5.342;2022-09-20T00:28:21;2.30;;;0.77;;
19280;SDS011;9774;52.034;5.342;2022-09-20T00:30:48;1.42;;;0.65;;
19280;SDS011;9774;52.034;5.342;2022-09-20T00:33:16;2.08;;;0.60;;
19280;SDS011;9774;52.034;5.342;2022-09-20T00:35:43;1.33;;;0.60;;
19280;SDS011;9774;52.034;5.342;2022-09-20T00:38:10;0.93;;;0.52;;
19280;SDS011;9774;52.034;5.342;2022-09-20T00:40:40;0.73;;;0.70;;
19280;SDS011;9774;52.034;5.342;2022-09-20T00:43:09;1.00;;;0.63;;
19280;SDS011;9774;52.034;5.342;2022-09-20T00:45:40;2.40;;;0.50;;
19280;SDS011;9774;52.034;5.342;2022-09-20T00:48:10;2.15;;;0.68;;
19280;SDS011;9774;52.034;5.342;2022-09-20T00:50:41;1.65;;;0.45;;
19280;SDS011;9774;52.034;5.342;2022-09-20T00:53:10;1.42;;;0.50;;
19280;SDS011;9774;52.034;5.342;2022-09-20T00:55:43;1.95;;;0.80;;
19280;SDS011;9774;52.034;5.342;2022-09-20T00:58:14;1.95;;;0.55;;
19280;SDS011;9774;52.034;5.342;2022-09-20T01:00:44;1.45;;;0.70;;
19280;SDS011;9774;52.034;5.342;2022-09-20T01:03:12;1.05;;;0.60;;
19280;SDS011;9774;52.034;5.342;2022-09-20T01:05:42;1.60;;;0.80;;
19280;SDS011;9774;52.034;5.342;2022-09-20T01:08:10;1.80;;;0.65;;
19280;SDS011;9774;52.034;5.342;2022-09-20T01:10:38;0.50;;;0.50;;
19280;SDS011;9774;52.034;5.342;2022-09-20T01:13:06;2.97;;;0.45;;
19280;SDS011;9774;52.034;5.342;2022-09-20T01:15:34;2.85;;;0.90;;
19280;SDS011;9774;52.034;5.342;2022-09-20T01:18:04;0.90;;;0.52;;
19280;SDS011;9774;52.034;5.342;2022-09-20T01:20:34;1.00;;;0.60;;
19280;SDS011;9774;52.034;5.342;2022-09-20T01:23:11;2.40;;;0.85;;
19280;SDS011;9774;52.034;5.342;2022-09-20T01:29:10;0.80;;;0.38;;
19280;SDS011;9774;52.034;5.342;2022-09-20T01:31:47;4.15;;;0.70;;
19280;SDS011;9774;52.034;5.342;2022-09-20T01:34:20;0.73;;;0.55;;
19280;SDS011;9774;52.034;5.342;2022-09-20T01:36:53;1.40;;;0.47;;
19280;SDS011;9774;52.034;5.342;2022-09-20T01:39:29;1.95;;;0.50;;
19280;SDS011;9774;52.034;5.342;2022-09-20T01:42:01;1.02;;;0.30;;
19280;SDS011;9774;52.034;5.342;2022-09-20T01:44:33;3.13;;;0.57;;
19280;SDS011;9774;52.034;5.342;2022-09-20T01:47:07;1.67;;;0.70;;
19280;SDS011;9774;52.034;5.342;2022-09-20T01:49:50;1.77;;;0.60;;
19280;SDS011;9774;52.034;5.342;2022-09-20T01:52:29;1.83;;;0.70;;
19280;SDS011;9774;52.034;5.342;2022-09-20T01:55:30;3.58;;;1.13;;
19280;SDS011;9774;52.034;5.342;2022-09-20T01:58:28;1.00;;;0.68;;
19280;SDS011;9774;52.034;5.342;2022-09-20T02:01:36;1.30;;;0.80;;
19280;SDS011;9774;52.034;5.342;2022-09-20T02:07:19;12.15;;;1.00;;
19280;SDS011;9774;52.034;5.342;2022-09-20T02:10:24;1.40;;;0.50;;
19280;SDS011;9774;52.034;5.342;2022-09-20T02:13:08;0.80;;;0.70;;
19280;SDS011;9774;52.034;5.342;2022-09-20T02:15:51;2.53;;;0.90;;
19280;SDS011;9774;52.034;5.342;2022-09-20T02:18:41;1.65;;;0.60;;
19280;SDS011;9774;52.034;5.342;2022-09-20T02:21:24;1.48;;;0.60;;
19280;SDS011;9774;52.034;5.342;2022-09-20T02:23:58;2.30;;;0.75;;
19280;SDS011;9774;52.034;5.342;2022-09-20T02:26:38;1.98;;;0.47;;
19280;SDS011;9774;52.034;5.342;2022-09-20T02:29:16;1.40;;;0.82;;
19280;SDS011;9774;52.034;5.342;2022-09-20T02:31:54;1.45;;;0.80;;
19280;SDS011;9774;52.034;5.342;2022-09-20T02:34:44;2.65;;;0.93;;
19280;SDS011;9774;52.034;5.342;2022-09-20T02:37:38;2.83;;;1.13;;
19280;SDS011;9774;52.034;5.342;2022-09-20T02:40:25;2.53;;;1.00;;
19280;SDS011;9774;52.034;5.342;2022-09-20T02:43:13;0.98;;;0.70;;
19280;SDS011;9774;52.034;5.342;2022-09-20T02:45:51;3.30;;;0.68;;
19280;SDS011;9774;52.034;5.342;2022-09-20T02:48:26;1.70;;;0.73;;
19280;SDS011;9774;52.034;5.342;2022-09-20T02:51:03;0.55;;;0.45;;
19280;SDS011;9774;52.034;5.342;2022-09-20T02:53:38;2.42;;;0.90;;
19280;SDS011;9774;52.034;5.342;2022-09-20T02:56:13;1.92;;;0.80;;
19280;SDS011;9774;52.034;5.342;2022-09-20T02:58:50;2.42;;;0.80;;
19280;SDS011;9774;52.034;5.342;2022-09-20T03:01:26;1.52;;;0.73;;
19280;SDS011;9774;52.034;5.342;2022-09-20T03:04:07;2.70;;;0.70;;
19280;SDS011;9774;52.034;5.342;2022-09-20T03:06:49;5.70;;;0.90;;
19280;SDS011;9774;52.034;5.342;2022-09-20T03:09:26;1.20;;;0.65;;
19280;SDS011;9774;52.034;5.342;2022-09-20T03:12:00;0.90;;;0.65;;
19280;SDS011;9774;52.034;5.342;2022-09-20T03:14:39;1.48;;;0.52;;
19280;SDS011;9774;52.034;5.342;2022-09-20T03:17:15;2.03;;;1.20;;
19280;SDS011;9774;52.034;5.342;2022-09-20T03:20:05;1.90;;;0.65;;
19280;SDS011;9774;52.034;5.342;2022-09-20T03:22:44;2.55;;;0.57;;
19280;SDS011;9774;52.034;5.342;2022-09-20T03:25:26;0.90;;;0.80;;
19280;SDS011;9774;52.034;5.342;2022-09-20T03:28:07;3.22;;;0.70;;
19280;SDS011;9774;52.034;5.342;2022-09-20T03:30:45;3.08;;;0.55;;
19280;SDS011;9774;52.034;5.342;2022-09-20T03:33:23;2.50;;;1.40;;
19280;SDS011;9774;52.034;5.342;2022-09-20T03:36:03;2.00;;;0.88;;
19280;SDS011;9774;52.034;5.342;2022-09-20T03:38:44;1.05;;;0.63;;
19280;SDS011;9774;52.034;5.342;2022-09-20T03:41:30;1.23;;;0.68;;
19280;SDS011;9774;52.034;5.342;2022-09-20T03:44:14;1.15;;;0.68;;
19280;SDS011;9774;52.034;5.342;2022-09-20T03:46:58;1.67;;;0.85;;
19280;SDS011;9774;52.034;5.342;2022-09-20T03:49:57;0.63;;;0.47;;
19280;SDS011;9774;52.034;5.342;2022-09-20T03:52:56;3.05;;;0.70;;
19280;SDS011;9774;52.034;5.342;2022-09-20T03:55:51;3.28;;;0.88;;
19280;SDS011;9774;52.034;5.342;2022-09-20T03:58:41;1.30;;;0.65;;
19280;SDS011;9774;52.034;5.342;2022-09-20T04:01:33;1.48;;;0.65;;
19280;SDS011;9774;52.034;5.342;2022-09-20T04:04:17;1.70;;;1.00;;
19280;SDS011;9774;52.034;5.342;2022-09-20T04:06:58;1.50;;;0.70;;
19280;SDS011;9774;52.034;5.342;2022-09-20T04:09:42;2.42;;;0.90;;
19280;SDS011;9774;52.034;5.342;2022-09-20T04:12:29;1.63;;;0.70;;
19280;SDS011;9774;52.034;5.342;2022-09-20T04:15:08;3.67;;;0.88;;
19280;SDS011;9774;52.034;5.342;2022-09-20T04:17:51;1.90;;;0.93;;
19280;SDS011;9774;52.034;5.342;2022-09-20T04:20:27;1.50;;;0.93;;
19280;SDS011;9774;52.034;5.342;2022-09-20T04:23:03;2.25;;;0.80;;
19280;SDS011;9774;52.034;5.342;2022-09-20T04:25:40;1.10;;;0.63;;
19280;SDS011;9774;52.034;5.342;2022-09-20T04:28:16;1.98;;;1.13;;
19280;SDS011;9774;52.034;5.342;2022-09-20T04:30:48;1.13;;;0.90;;
19280;SDS011;9774;52.034;5.342;2022-09-20T04:33:22;1.05;;;0.63;;
19280;SDS011;9774;52.034;5.342;2022-09-20T04:35:54;2.33;;;0.80;;
19280;SDS011;9774;52.034;5.342;2022-09-20T04:38:53;3.00;;;0.82;;
19280;SDS011;9774;52.034;5.342;2022-09-20T04:41:35;3.08;;;1.00;;
19280;SDS011;9774;52.034;5.342;2022-09-20T04:44:37;2.38;;;0.90;;
19280;SDS011;9774;52.034;5.342;2022-09-20T04:47:35;1.60;;;0.88;;
19280;SDS011;9774;52.034;5.342;2022-09-20T04:53:46;2.10;;;0.88;;
19280;SDS011;9774;52.034;5.342;2022-09-20T04:56:40;1.08;;;0.75;;
19280;SDS011;9774;52.034;5.342;2022-09-20T04:59:23;3.53;;;1.00;;
19280;SDS011;9774;52.034;5.342;2022-09-20T05:11:40;1.40;;;1.00;;
19280;SDS011;9774;52.034;5.342;2022-09-20T05:17:21;2.13;;;1.17;;
19280;SDS011;9774;52.034;5.342;2022-09-20T05:20:08;1.58;;;0.93;;
19280;SDS011;9774;52.034;5.342;2022-09-20T05:23:21;4.22;;;0.95;;
19280;SDS011;9774;52.034;5.342;2022-09-20T05:26:17;3.00;;;0.98;;
19280;SDS011;9774;52.034;5.342;2022-09-20T05:28:53;1.08;;;0.88;;
19280;SDS011;9774;52.034;5.342;2022-09-20T05:31:29;2.83;;;1.08;;
19280;SDS011;9774;52.034;5.342;2022-09-20T05:34:06;1.83;;;1.10;;
19280;SDS011;9774;52.034;5.342;2022-09-20T05:36:46;3.05;;;1.38;;
19280;SDS011;9774;52.034;5.342;2022-09-20T05:39:22;2.47;;;1.33;;
19280;SDS011;9774;52.034;5.342;2022-09-20T05:42:00;1.67;;;0.98;;
19280;SDS011;9774;52.034;5.342;2022-09-20T05:44:44;3.10;;;1.00;;
19280;SDS011;9774;52.034;5.342;2022-09-20T05:47:23;2.33;;;0.88;;
19280;SDS011;9774;52.034;5.342;2022-09-20T05:50:02;2.10;;;0.95;;
19280;SDS011;9774;52.034;5.342;2022-09-20T05:52:45;3.03;;;0.90;;
19280;SDS011;9774;52.034;5.342;2022-09-20T05:55:19;1.08;;;0.93;;
19280;SDS011;9774;52.034;5.342;2022-09-20T05:58:12;1.05;;;0.90;;
19280;SDS011;9774;52.034;5.342;2022-09-20T06:00:49;3.35;;;1.25;;
19280;SDS011;9774;52.034;5.342;2022-09-20T06:03:24;2.10;;;1.10;;
19280;SDS011;9774;52.034;5.342;2022-09-20T06:06:03;2.10;;;1.30;;
19280;SDS011;9774;52.034;5.342;2022-09-20T06:08:45;1.90;;;1.40;;
19280;SDS011;9774;52.034;5.342;2022-09-20T06:14:28;1.50;;;1.02;;
19280;SDS011;9774;52.034;5.342;2022-09-20T06:17:06;1.67;;;1.08;;
19280;SDS011;9774;52.034;5.342;2022-09-20T06:19:44;2.08;;;1.10;;
19280;SDS011;9774;52.034;5.342;2022-09-20T06:22:16;2.42;;;1.23;;
19280;SDS011;9774;52.034;5.342;2022-09-20T06:24:50;2.55;;;1.40;;
19280;SDS011;9774;52.034;5.342;2022-09-20T06:27:25;3.20;;;1.50;;
19280;SDS011;9774;52.034;5.342;2022-09-20T06:29:58;2.50;;;1.25;;
19280;SDS011;9774;52.034;5.342;2022-09-20T06:32:27;2.20;;;1.60;;
19280;SDS011;9774;52.034;5.342;2022-09-20T06:34:55;3.25;;;1.80;;
19280;SDS011;9774;52.034;5.342;2022-09-20T06:37:31;4.68;;;1.98;;
19280;SDS011;9774;52.034;5.342;2022-09-20T06:40:28;2.45;;;1.95;;
19280;SDS011;9774;52.034;5.342;2022-09-20T06:43:19;2.83;;;1.83;;
19280;SDS011;9774;52.034;5.342;2022-09-20T06:45:46;2.17;;;1.75;;
19280;SDS011;9774;52.034;5.342;2022-09-20T06:48:13;2.58;;;1.67;;
19280;SDS011;9774;52.034;5.342;2022-09-20T06:50:43;2.85;;;1.65;;
19280;SDS011;9774;52.034;5.342;2022-09-20T06:53:13;4.32;;;1.60;;
19280;SDS011;9774;52.034;5.342;2022-09-20T06:55:44;3.72;;;1.35;;
19280;SDS011;9774;52.034;5.342;2022-09-20T06:58:12;3.08;;;1.27;;
19280;SDS011;9774;52.034;5.342;2022-09-20T07:00:39;2.03;;;1.23;;
19280;SDS011;9774;52.034;5.342;2022-09-20T07:03:06;3.40;;;1.77;;
19280;SDS011;9774;52.034;5.342;2022-09-20T07:05:36;3.25;;;1.33;;
19280;SDS011;9774;52.034;5.342;2022-09-20T07:08:04;2.20;;;1.27;;
19280;SDS011;9774;52.034;5.342;2022-09-20T07:10:32;2.03;;;1.23;;
19280;SDS011;9774;52.034;5.342;2022-09-20T07:13:01;2.60;;;1.42;;
19280;SDS011;9774;52.034;5.342;2022-09-20T07:15:29;1.73;;;1.27;;
19280;SDS011;9774;52.034;5.342;2022-09-20T07:17:58;2.30;;;1.80;;
19280;SDS011;9774;52.034;5.342;2022-09-20T07:20:25;1.42;;;1.33;;
19280;SDS011;9774;52.034;5.342;2022-09-20T07:22:53;4.20;;;1.38;;
19280;SDS011;9774;52.034;5.342;2022-09-20T07:25:20;2.35;;;1.50;;
19280;SDS011;9774;52.034;5.342;2022-09-20T07:27:48;2.25;;;1.70;;
19280;SDS011;9774;52.034;5.342;2022-09-20T07:30:17;2.35;;;1.63;;
19280;SDS011;9774;52.034;5.342;2022-09-20T07:32:45;2.08;;;1.50;;
19280;SDS011;9774;52.034;5.342;2022-09-20T07:35:13;1.75;;;1.35;;
19280;SDS011;9774;52.034;5.342;2022-09-20T07:37:40;4.20;;;1.38;;
19280;SDS011;9774;52.034;5.342;2022-09-20T07:40:08;4.18;;;1.70;;
19280;SDS011;9774;52.034;5.342;2022-09-20T07:42:36;4.32;;;1.55;;
19280;SDS011;9774;52.034;5.342;2022-09-20T07:45:04;2.35;;;1.80;;
19280;SDS011;9774;52.034;5.342;2022-09-20T07:47:33;3.42;;;1.50;;
19280;SDS011;9774;52.034;5.342;2022-09-20T07:50:05;4.25;;;1.40;;
19280;SDS011;9774;52.034;5.342;2022-09-20T07:52:34;3.97;;;1.42;;
19280;SDS011;9774;52.034;5.342;2022-09-20T07:55:01;2.85;;;1.30;;
19280;SDS011;9774;52.034;5.342;2022-09-20T07:57:28;4.00;;;1.77;;
19280;SDS011;9774;52.034;5.342;2022-09-20T08:00:01;2.85;;;1.60;;
19280;SDS011;9774;52.034;5.342;2022-09-20T08:02:30;3.78;;;1.70;;
19280;SDS011;9774;52.034;5.342;2022-09-20T08:04:59;5.40;;;1.58;;
19280;SDS011;9774;52.034;5.342;2022-09-20T08:07:27;1.63;;;1.23;;
19280;SDS011;9774;52.034;5.342;2022-09-20T08:09:55;3.00;;;1.30;;
19280;SDS011;9774;52.034;5.342;2022-09-20T08:12:22;3.55;;;0.98;;
19280;SDS011;9774;52.034;5.342;2022-09-20T08:14:50;1.77;;;0.88;;
19280;SDS011;9774;52.034;5.342;2022-09-20T08:17:17;1.20;;;0.85;;
19280;SDS011;9774;52.034;5.342;2022-09-20T08:19:45;0.73;;;0.50;;
19280;SDS011;9774;52.034;5.342;2022-09-20T08:22:14;0.32;;;0.25;;
19280;SDS011;9774;52.034;5.342;2022-09-20T08:24:41;0.95;;;0.40;;
19280;SDS011;9774;52.034;5.342;2022-09-20T08:27:08;1.17;;;0.28;;
19280;SDS011;9774;52.034;5.342;2022-09-20T08:29:36;1.85;;;0.43;;
19280;SDS011;9774;52.034;5.342;2022-09-20T08:32:04;0.43;;;0.32;;
19280;SDS011;9774;52.034;5.342;2022-09-20T08:34:31;1.90;;;0.43;;
19280;SDS011;9774;52.034;5.342;2022-09-20T08:36:59;0.98;;;0.40;;
19280;SDS011;9774;52.034;5.342;2022-09-20T08:39:27;1.83;;;0.43;;
19280;SDS011;9774;52.034;5.342;2022-09-20T08:41:56;2.72;;;0.40;;
19280;SDS011;9774;52.034;5.342;2022-09-20T08:44:32;1.70;;;0.50;;
19280;SDS011;9774;52.034;5.342;2022-09-20T08:47:16;0.90;;;0.25;;
19280;SDS011;9774;52.034;5.342;2022-09-20T08:49:46;2.30;;;0.50;;
19280;SDS011;9774;52.034;5.342;2022-09-20T08:52:15;1.23;;;0.40;;
19280;SDS011;9774;52.034;5.342;2022-09-20T08:54:47;2.95;;;0.30;;
19280;SDS011;9774;52.034;5.342;2022-09-20T08:57:15;0.88;;;0.32;;
19280;SDS011;9774;52.034;5.342;2022-09-20T08:59:45;1.23;;;0.40;;
19280;SDS011;9774;52.034;5.342;2022-09-20T09:02:15;0.93;;;0.22;;
19280;SDS011;9774;52.034;5.342;2022-09-20T09:04:44;1.70;;;0.40;;
19280;SDS011;9774;52.034;5.342;2022-09-20T09:07:15;3.28;;;0.55;;
19280;SDS011;9774;52.034;5.342;2022-09-20T09:09:47;1.10;;;0.32;;
19280;SDS011;9774;52.034;5.342;2022-09-20T09:12:20;0.88;;;0.38;;
19280;SDS011;9774;52.034;5.342;2022-09-20T09:14:50;1.67;;;0.30;;
19280;SDS011;9774;52.034;5.342;2022-09-20T09:17:23;1.83;;;0.30;;
19280;SDS011;9774;52.034;5.342;2022-09-20T09:19:53;1.67;;;0.20;;
19280;SDS011;9774;52.034;5.342;2022-09-20T09:22:22;1.95;;;0.25;;
19280;SDS011;9774;52.034;5.342;2022-09-20T09:25:18;0.47;;;0.20;;
19280;SDS011;9774;52.034;5.342;2022-09-20T09:27:50;1.75;;;0.22;;
19280;SDS011;9774;52.034;5.342;2022-09-20T09:30:20;6.38;;;0.80;;
19280;SDS011;9774;52.034;5.342;2022-09-20T09:32:50;2.35;;;0.40;;
19280;SDS011;9774;52.034;5.342;2022-09-20T09:35:26;2.10;;;0.22;;
19280;SDS011;9774;52.034;5.342;2022-09-20T09:37:56;1.90;;;0.52;;
19280;SDS011;9774;52.034;5.342;2022-09-20T09:40:27;1.50;;;0.30;;
19280;SDS011;9774;52.034;5.342;2022-09-20T09:42:56;2.78;;;0.28;;
19280;SDS011;9774;52.034;5.342;2022-09-20T09:45:26;1.52;;;0.25;;
19280;SDS011;9774;52.034;5.342;2022-09-20T09:47:56;2.85;;;0.65;;
19280;SDS011;9774;52.034;5.342;2022-09-20T09:50:26;2.42;;;0.30;;
19280;SDS011;9774;52.034;5.342;2022-09-20T09:52:56;1.75;;;0.20;;
19280;SDS011;9774;52.034;5.342;2022-09-20T09:55:32;0.88;;;0.40;;
19280;SDS011;9774;52.034;5.342;2022-09-20T09:58:20;1.77;;;0.47;;
19280;SDS011;9774;52.034;5.342;2022-09-20T10:00:56;1.58;;;0.40;;
19280;SDS011;9774;52.034;5.342;2022-09-20T10:03:29;1.20;;;0.20;;
19280;SDS011;9774;52.034;5.342;2022-09-20T10:06:06;1.63;;;0.40;;
19280;SDS011;9774;52.034;5.342;2022-09-20T10:08:45;0.40;;;0.22;;
19280;SDS011;9774;52.034;5.342;2022-09-20T10:11:28;2.10;;;0.22;;
19280;SDS011;9774;52.034;5.342;2022-09-20T10:14:02;1.65;;;0.30;;
19280;SDS011;9774;52.034;5.342;2022-09-20T10:16:47;1.48;;;0.13;;
19280;SDS011;9774;52.034;5.342;2022-09-20T10:19:28;1.52;;;0.30;;
19280;SDS011;9774;52.034;5.342;2022-09-20T10:22:13;2.47;;;0.35;;
19280;SDS011;9774;52.034;5.342;2022-09-20T10:24:49;1.15;;;0.47;;
19280;SDS011;9774;52.034;5.342;2022-09-20T10:27:29;0.73;;;0.30;;
19280;SDS011;9774;52.034;5.342;2022-09-20T10:30:06;1.67;;;0.20;;
19280;SDS011;9774;52.034;5.342;2022-09-20T10:32:47;2.08;;;0.20;;
19280;SDS011;9774;52.034;5.342;2022-09-20T10:35:28;1.80;;;0.20;;
19280;SDS011;9774;52.034;5.342;2022-09-20T10:38:16;0.47;;;0.28;;
19280;SDS011;9774;52.034;5.342;2022-09-20T10:40:55;0.77;;;0.20;;
19280;SDS011;9774;52.034;5.342;2022-09-20T10:44:12;0.52;;;0.25;;
19280;SDS011;9774;52.034;5.342;2022-09-20T10:46:52;0.98;;;0.20;;
19280;SDS011;9774;52.034;5.342;2022-09-20T10:49:26;1.75;;;0.10;;
19280;SDS011;9774;52.034;5.342;2022-09-20T10:52:14;0.20;;;0.17;;
19280;SDS011;9774;52.034;5.342;2022-09-20T10:54:53;1.27;;;0.20;;
19280;SDS011;9774;52.034;5.342;2022-09-20T10:57:42;1.00;;;0.20;;
19280;SDS011;9774;52.034;5.342;2022-09-20T11:00:30;0.98;;;0.22;;
19280;SDS011;9774;52.034;5.342;2022-09-20T11:03:07;3.05;;;0.50;;
19280;SDS011;9774;52.034;5.342;2022-09-20T11:05:45;1.80;;;0.40;;
19280;SDS011;9774;52.034;5.342;2022-09-20T11:08:25;2.03;;;0.40;;
19280;SDS011;9774;52.034;5.342;2022-09-20T11:10:58;0.80;;;0.30;;
19280;SDS011;9774;52.034;5.342;2022-09-20T11:13:31;1.75;;;0.65;;
19280;SDS011;9774;52.034;5.342;2022-09-20T11:16:07;1.98;;;0.68;;
19280;SDS011;9774;52.034;5.342;2022-09-20T11:18:38;3.53;;;0.40;;
19280;SDS011;9774;52.034;5.342;2022-09-20T11:21:13;1.38;;;0.47;;
19280;SDS011;9774;52.034;5.342;2022-09-20T11:23:48;1.70;;;0.20;;
19280;SDS011;9774;52.034;5.342;2022-09-20T11:26:21;2.28;;;0.52;;
19280;SDS011;9774;52.034;5.342;2022-09-20T11:28:53;2.33;;;0.75;;
19280;SDS011;9774;52.034;5.342;2022-09-20T11:31:29;2.25;;;0.30;;
19280;SDS011;9774;52.034;5.342;2022-09-20T11:34:01;2.38;;;0.40;;
19280;SDS011;9774;52.034;5.342;2022-09-20T11:36:37;2.47;;;0.38;;
19280;SDS011;9774;52.034;5.342;2022-09-20T11:39:14;2.60;;;0.40;;
19280;SDS011;9774;52.034;5.342;2022-09-20T11:41:47;3.03;;;0.40;;
19280;SDS011;9774;52.034;5.342;2022-09-20T11:44:17;0.80;;;0.38;;
19280;SDS011;9774;52.034;5.342;2022-09-20T11:46:48;2.03;;;0.40;;
19280;SDS011;9774;52.034;5.342;2022-09-20T11:49:21;2.75;;;0.52;;
19280;SDS011;9774;52.034;5.342;2022-09-20T11:52:10;4.47;;;0.30;;
19280;SDS011;9774;52.034;5.342;2022-09-20T11:55:19;3.50;;;0.43;;
19280;SDS011;9774;52.034;5.342;2022-09-20T11:58:06;2.22;;;0.45;;
19280;SDS011;9774;52.034;5.342;2022-09-20T12:00:36;2.15;;;0.30;;
19280;SDS011;9774;52.034;5.342;2022-09-20T12:03:08;1.27;;;0.32;;
19280;SDS011;9774;52.034;5.342;2022-09-20T12:05:54;0.68;;;0.25;;
19280;SDS011;9774;52.034;5.342;2022-09-20T12:08:24;1.42;;;0.30;;
19280;SDS011;9774;52.034;5.342;2022-09-20T12:10:55;2.10;;;0.22;;
19280;SDS011;9774;52.034;5.342;2022-09-20T12:13:25;7.47;;;0.80;;
19280;SDS011;9774;52.034;5.342;2022-09-20T12:16:00;1.13;;;0.20;;
19280;SDS011;9774;52.034;5.342;2022-09-20T12:21:26;0.47;;;0.30;;
19280;SDS011;9774;52.034;5.342;2022-09-20T12:26:54;1.13;;;0.45;;
19280;SDS011;9774;52.034;5.342;2022-09-20T12:32:38;2.97;;;0.55;;
19280;SDS011;9774;52.034;5.342;2022-09-20T12:41:16;2.67;;;0.32;;
19280;SDS011;9774;52.034;5.342;2022-09-20T12:43:49;1.52;;;0.43;;
19280;SDS011;9774;52.034;5.342;2022-09-20T12:46:30;2.45;;;0.43;;
19280;SDS011;9774;52.034;5.342;2022-09-20T12:49:11;3.30;;;0.40;;
19280;SDS011;9774;52.034;5.342;2022-09-20T12:52:19;4.60;;;0.70;;
19280;SDS011;9774;52.034;5.342;2022-09-20T13:10:16;3.63;;;0.20;;
19280;SDS011;9774;52.034;5.342;2022-09-20T13:12:52;3.33;;;0.32;;
19280;SDS011;9774;52.034;5.342;2022-09-20T13:15:27;1.25;;;0.40;;
19280;SDS011;9774;52.034;5.342;2022-09-20T13:17:58;0.55;;;0.20;;
19280;SDS011;9774;52.034;5.342;2022-09-20T13:20:27;3.67;;;0.52;;
19280;SDS011;9774;52.034;5.342;2022-09-20T13:22:58;2.55;;;0.95;;
19280;SDS011;9774;52.034;5.342;2022-09-20T13:25:27;0.88;;;0.17;;
19280;SDS011;9774;52.034;5.342;2022-09-20T13:27:59;1.85;;;0.40;;
19280;SDS011;9774;52.034;5.342;2022-09-20T13:30:32;0.82;;;0.30;;
19280;SDS011;9774;52.034;5.342;2022-09-20T13:33:13;3.28;;;0.85;;
19280;SDS011;9774;52.034;5.342;2022-09-20T13:35:42;0.82;;;0.25;;
19280;SDS011;9774;52.034;5.342;2022-09-20T13:38:12;1.63;;;0.47;;
19280;SDS011;9774;52.034;5.342;2022-09-20T13:40:44;2.55;;;0.40;;
19280;SDS011;9774;52.034;5.342;2022-09-20T13:43:17;2.28;;;0.32;;
19280;SDS011;9774;52.034;5.342;2022-09-20T13:45:52;2.03;;;0.40;;
19280;SDS011;9774;52.034;5.342;2022-09-20T13:48:25;3.22;;;0.40;;
19280;SDS011;9774;52.034;5.342;2022-09-20T13:50:54;1.67;;;0.40;;
19280;SDS011;9774;52.034;5.342;2022-09-20T13:53:23;1.13;;;0.30;;
19280;SDS011;9774;52.034;5.342;2022-09-20T13:55:52;2.33;;;0.30;;
19280;SDS011;9774;52.034;5.342;2022-09-20T13:58:22;1.45;;;0.50;;
19280;SDS011;9774;52.034;5.342;2022-09-20T14:00:52;2.90;;;0.40;;
19280;SDS011;9774;52.034;5.342;2022-09-20T14:03:22;2.25;;;0.70;;
19280;SDS011;9774;52.034;5.342;2022-09-20T14:05:52;3.20;;;0.38;;
19280;SDS011;9774;52.034;5.342;2022-09-20T14:08:23;1.55;;;0.30;;
19280;SDS011;9774;52.034;5.342;2022-09-20T14:11:02;3.53;;;0.40;;
19280;SDS011;9774;52.034;5.342;2022-09-20T14:13:34;2.00;;;0.40;;
19280;SDS011;9774;52.034;5.342;2022-09-20T14:16:05;0.35;;;0.25;;
19280;SDS011;9774;52.034;5.342;2022-09-20T14:18:33;2.33;;;0.50;;
19280;SDS011;9774;52.034;5.342;2022-09-20T14:21:01;2.10;;;0.30;;
19280;SDS011;9774;52.034;5.342;2022-09-20T14:23:31;3.15;;;0.70;;
19280;SDS011;9774;52.034;5.342;2022-09-20T14:26:20;1.13;;;0.30;;
19280;SDS011;9774;52.034;5.342;2022-09-20T14:28:52;1.73;;;0.50;;
19280;SDS011;9774;52.034;5.342;2022-09-20T14:31:20;0.70;;;0.22;;
19280;SDS011;9774;52.034;5.342;2022-09-20T14:33:50;2.38;;;0.30;;
19280;SDS011;9774;52.034;5.342;2022-09-20T14:36:21;1.75;;;0.43;;
19280;SDS011;9774;52.034;5.342;2022-09-20T14:38:50;1.13;;;0.20;;
19280;SDS011;9774;52.034;5.342;2022-09-20T14:41:26;2.17;;;0.50;;
19280;SDS011;9774;52.034;5.342;2022-09-20T14:44:00;1.77;;;0.35;;
19280;SDS011;9774;52.034;5.342;2022-09-20T14:46:30;1.17;;;0.50;;
19280;SDS011;9774;52.034;5.342;2022-09-20T14:49:18;2.22;;;0.40;;
19280;SDS011;9774;52.034;5.342;2022-09-20T14:55:18;5.63;;;0.88;;
19280;SDS011;9774;52.034;5.342;2022-09-20T14:57:52;0.75;;;0.20;;
19280;SDS011;9774;52.034;5.342;2022-09-20T15:00:25;1.52;;;0.52;;
19280;SDS011;9774;52.034;5.342;2022-09-20T15:02:53;1.13;;;0.40;;
19280;SDS011;9774;52.034;5.342;2022-09-20T15:05:29;3.13;;;0.47;;
19280;SDS011;9774;52.034;5.342;2022-09-20T15:07:56;0.47;;;0.20;;
19280;SDS011;9774;52.034;5.342;2022-09-20T15:10:24;0.50;;;0.40;;
19280;SDS011;9774;52.034;5.342;2022-09-20T15:12:53;2.28;;;0.35;;
19280;SDS011;9774;52.034;5.342;2022-09-20T15:15:21;1.13;;;0.40;;
19280;SDS011;9774;52.034;5.342;2022-09-20T15:17:49;2.67;;;0.40;;
19280;SDS011;9774;52.034;5.342;2022-09-20T15:20:17;1.55;;;0.50;;
19280;SDS011;9774;52.034;5.342;2022-09-20T15:22:45;2.38;;;0.50;;
19280;SDS011;9774;52.034;5.342;2022-09-20T15:25:14;1.77;;;0.30;;
19280;SDS011;9774;52.034;5.342;2022-09-20T15:27:44;1.80;;;0.47;;
19280;SDS011;9774;52.034;5.342;2022-09-20T15:30:15;1.00;;;0.28;;
19280;SDS011;9774;52.034;5.342;2022-09-20T15:32:45;2.75;;;0.68;;
19280;SDS011;9774;52.034;5.342;2022-09-20T15:35:13;0.88;;;0.38;;
19280;SDS011;9774;52.034;5.342;2022-09-20T15:37:41;1.95;;;0.30;;
19280;SDS011;9774;52.034;5.342;2022-09-20T15:40:09;2.03;;;0.57;;
19280;SDS011;9774;52.034;5.342;2022-09-20T15:42:37;0.63;;;0.30;;
19280;SDS011;9774;52.034;5.342;2022-09-20T15:45:06;2.70;;;0.65;;
19280;SDS011;9774;52.034;5.342;2022-09-20T15:47:35;1.95;;;0.60;;
19280;SDS011;9774;52.034;5.342;2022-09-20T15:50:03;1.75;;;0.32;;
19280;SDS011;9774;52.034;5.342;2022-09-20T15:52:34;0.80;;;0.20;;
19280;SDS011;9774;52.034;5.342;2022-09-20T15:55:04;2.13;;;0.50;;
19280;SDS011;9774;52.034;5.342;2022-09-20T15:57:32;2.00;;;0.47;;
19280;SDS011;9774;52.034;5.342;2022-09-20T16:00:00;2.97;;;0.30;;
19280;SDS011;9774;52.034;5.342;2022-09-20T16:02:28;1.23;;;0.30;;
19280;SDS011;9774;52.034;5.342;2022-09-20T16:04:56;0.95;;;0.47;;
19280;SDS011;9774;52.034;5.342;2022-09-20T16:07:23;1.05;;;0.47;;
19280;SDS011;9774;52.034;5.342;2022-09-20T16:09:53;0.63;;;0.20;;
19280;SDS011;9774;52.034;5.342;2022-09-20T16:12:21;3.17;;;0.77;;
19280;SDS011;9774;52.034;5.342;2022-09-20T16:14:49;1.35;;;0.50;;
19280;SDS011;9774;52.034;5.342;2022-09-20T16:17:17;3.33;;;0.50;;
19280;SDS011;9774;52.034;5.342;2022-09-20T16:20:06;1.25;;;0.40;;
19280;SDS011;9774;52.034;5.342;2022-09-20T16:22:32;0.75;;;0.50;;
19280;SDS011;9774;52.034;5.342;2022-09-20T16:25:01;1.52;;;0.50;;
19280;SDS011;9774;52.034;5.342;2022-09-20T16:27:30;2.80;;;0.50;;
19280;SDS011;9774;52.034;5.342;2022-09-20T16:29:58;1.55;;;0.35;;
19280;SDS011;9774;52.034;5.342;2022-09-20T16:32:26;3.00;;;0.40;;
19280;SDS011;9774;52.034;5.342;2022-09-20T16:34:53;6.63;;;0.68;;
19280;SDS011;9774;52.034;5.342;2022-09-20T16:37:22;1.25;;;0.40;;
19280;SDS011;9774;52.034;5.342;2022-09-20T16:39:52;1.50;;;0.30;;
19280;SDS011;9774;52.034;5.342;2022-09-20T16:42:22;1.27;;;0.47;;
19280;SDS011;9774;52.034;5.342;2022-09-20T16:44:49;1.30;;;0.45;;
19280;SDS011;9774;52.034;5.342;2022-09-20T16:47:17;2.03;;;0.30;;